Time;durP1;ratioP1;P1;durP2;ratioP2;P2;SDS_P1;SDS_P2;PMS_P1;PMS_P2;Temp;Humidity;BMP_temperature;BMP_pressure;BME280_temperature;BME280_humidity;BME280_pressure;Samples;Min_cycle;Max_cycle;Signal;HPM_P1;HPM_P2
2023/12/22 00:00:56;;;;;;;16.35;7.38;;;;;;;5.54;93.92;96506.81;4917625;29;20466;-81
2023/12/22 00:03:21;;;;;;;15.10;7.25;;;;;;;5.68;94.03;96529.00;4917737;29;20028;-81
2023/12/22 00:05:47;;;;;;;15.60;4.30;;;;;;;5.52;94.20;96488.06;4917337;29;20028;-81
2023/12/22 00:08:12;;;;;;;17.65;7.22;;;;;;;5.54;93.90;96501.66;4917238;29;20111;-81
2023/12/22 00:10:37;;;;;;;22.60;10.23;;;;;;;5.63;93.71;96528.53;4917235;29;20024;-80
2023/12/22 00:13:03;;;;;;;13.75;4.50;;;;;;;5.65;94.09;96529.25;4917439;29;20098;-81
2023/12/22 00:15:28;;;;;;;19.98;8.90;;;;;;;5.63;93.54;96531.94;4917348;29;20028;-81
2023/12/22 00:17:53;;;;;;;13.40;4.25;;;;;;;5.76;93.11;96555.06;4917407;29;20032;-81
2023/12/22 00:20:19;;;;;;;12.43;4.38;;;;;;;5.54;93.33;96511.16;4917256;29;20032;-81
2023/12/22 00:22:44;;;;;;;18.95;7.53;;;;;;;5.62;93.82;96530.28;4916984;29;20031;-81
2023/12/22 00:25:09;;;;;;;14.23;4.10;;;;;;;5.54;93.36;96498.25;4917183;29;20024;-81
2023/12/22 00:27:35;;;;;;;12.32;3.80;;;;;;;5.56;93.29;96507.50;4916833;29;20059;-81
2023/12/22 00:30:00;;;;;;;13.45;4.15;;;;;;;5.58;92.07;96538.41;4917120;29;20032;-80
2023/12/22 00:32:26;;;;;;;16.02;6.70;;;;;;;5.46;91.43;96514.34;4917145;29;20036;-81
2023/12/22 00:34:51;;;;;;;16.67;5.15;;;;;;;5.46;91.14;96514.34;4916617;29;20052;-81
2023/12/22 00:37:16;;;;;;;14.90;5.30;;;;;;;5.51;90.68;96531.09;4917374;29;20032;-81
2023/12/22 00:39:42;;;;;;;29.17;14.95;;;;;;;5.52;90.17;96537.13;4916758;29;20119;-81
2023/12/22 00:42:07;;;;;;;15.77;6.20;;;;;;;5.41;90.04;96527.59;4916821;29;20485;-81
2023/12/22 00:44:32;;;;;;;32.05;15.98;;;;;;;5.45;89.62;96525.59;4916855;29;20115;-81
2023/12/22 00:46:58;;;;;;;17.65;6.43;;;;;;;5.63;88.74;96549.19;4916481;29;20020;-81
2023/12/22 00:49:23;;;;;;;16.58;4.78;;;;;;;5.55;87.65;96554.94;4916780;29;20474;-81
2023/12/22 00:51:48;;;;;;;20.77;5.72;;;;;;;5.35;86.97;96542.69;4916220;29;20024;-81
2023/12/22 00:54:14;;;;;;;17.33;4.30;;;;;;;5.46;86.67;96561.59;4915331;29;20032;-81
2023/12/22 00:56:39;;;;;;;22.90;9.18;;;;;;;5.25;86.88;96537.41;4916336;29;20026;-81
2023/12/22 00:59:04;;;;;;;11.63;3.80;;;;;;;5.32;86.66;96564.41;4916619;29;20111;-81
2023/12/22 01:01:30;;;;;;;15.90;6.72;;;;;;;5.25;85.09;96540.81;4916599;29;20087;-81
2023/12/22 01:03:55;;;;;;;13.07;6.05;;;;;;;5.16;84.61;96528.59;4916392;29;20076;-81
2023/12/22 01:06:21;;;;;;;30.20;13.77;;;;;;;5.48;85.21;96582.97;4916456;29;20529;-81
2023/12/22 01:08:49;;;;;;;8.10;2.78;;;;;;;5.48;84.48;96597.66;4916245;29;20031;-81
2023/12/22 01:11:15;;;;;;;13.88;4.63;;;;;;;5.21;84.40;96554.06;4916504;29;20032;-81
2023/12/22 01:13:41;;;;;;;14.70;5.75;;;;;;;5.21;84.81;96554.06;4916245;29;20136;-81
2023/12/22 01:16:06;;;;;;;12.55;4.43;;;;;;;5.34;85.70;96580.59;4916434;29;20020;-81
2023/12/22 01:18:31;;;;;;;16.45;3.65;;;;;;;5.25;87.28;96571.78;4916306;29;20052;-81
2023/12/22 01:20:57;;;;;;;18.75;7.93;;;;;;;5.44;88.22;96599.63;4915592;29;20028;-80
2023/12/22 01:23:22;;;;;;;15.57;8.48;;;;;;;5.44;88.73;96601.41;4916357;29;20028;-81
2023/12/22 01:25:47;;;;;;;12.27;7.72;;;;;;;5.36;88.97;96577.91;4915759;29;20028;-81
2023/12/22 01:28:12;;;;;;;17.95;6.57;;;;;;;5.38;88.87;96587.16;4916218;29;20040;-81
2023/12/22 01:30:38;;;;;;;13.40;3.90;;;;;;;5.38;88.72;96604.41;4916018;29;20433;-81
2023/12/22 01:33:03;;;;;;;13.65;4.00;;;;;;;5.32;88.81;96602.31;4916227;29;20028;-81
2023/12/22 01:35:29;;;;;;;14.63;3.80;;;;;;;5.17;88.66;96583.59;4915876;29;20055;-81
2023/12/22 01:37:54;;;;;;;14.85;4.90;;;;;;;4.97;88.33;96557.53;4916284;29;20522;-81
2023/12/22 01:40:20;;;;;;;15.40;4.95;;;;;;;5.02;88.56;96544.28;4915911;29;20036;-81
2023/12/22 01:42:46;;;;;;;14.77;3.85;;;;;;;5.13;88.43;96577.03;4915679;29;20032;-80
2023/12/22 01:45:11;;;;;;;18.55;6.03;;;;;;;4.94;88.62;96549.19;4916254;29;20043;-81
2023/12/22 01:47:37;;;;;;;16.88;3.80;;;;;;;4.90;88.59;96573.56;4916150;29;20035;-81
2023/12/22 01:50:03;;;;;;;17.25;3.95;;;;;;;4.95;87.92;96592.09;4916050;29;20442;-81
2023/12/22 01:52:29;;;;;;;16.45;5.18;;;;;;;4.88;87.91;96580.56;4916306;29;20111;-81
2023/12/22 01:54:55;;;;;;;13.70;3.97;;;;;;;4.77;87.45;96558.16;4915545;29;20409;-81
2023/12/22 01:57:21;;;;;;;14.02;4.30;;;;;;;4.91;87.66;96585.50;4915942;29;20449;-81
2023/12/22 01:59:48;;;;;;;10.20;3.70;;;;;;;4.96;87.44;96583.41;4915452;29;20037;-81
2023/12/22 02:02:14;;;;;;;16.60;4.93;;;;;;;5.00;87.62;96618.38;4915979;29;20028;-81
2023/12/22 02:04:39;;;;;;;14.75;6.00;;;;;;;4.97;86.94;96600.53;4915955;29;20039;-81
2023/12/22 02:07:08;;;;;;;16.60;4.93;;;;;;;4.96;86.38;96597.13;4915798;29;20039;-81
2023/12/22 02:09:34;;;;;;;18.30;6.22;;;;;;;4.74;86.37;96545.47;4915941;29;20078;-81
2023/12/22 02:11:59;;;;;;;11.57;3.90;;;;;;;4.95;86.00;96586.94;4915651;29;20028;-81
2023/12/22 02:14:25;;;;;;;11.90;3.40;;;;;;;4.62;85.01;96544.59;4915925;29;20036;-81
2023/12/22 02:17:15;;;;;;;11.50;4.30;;;;;;;4.96;84.87;96584.22;4915627;29;20548;-81
2023/12/22 02:19:43;;;;;;;12.32;3.95;;;;;;;4.86;84.05;96578.13;4915691;29;20064;-81
2023/12/22 02:22:10;;;;;;;10.25;2.97;;;;;;;4.86;83.86;96595.34;4915775;29;20028;-81
2023/12/22 02:24:37;;;;;;;10.98;4.95;;;;;;;4.87;84.22;96604.72;4915866;29;20040;-81
2023/12/22 02:27:15;;;;;;;11.57;3.85;;;;;;;4.83;84.80;96580.91;4915494;29;20040;-81
2023/12/22 02:29:48;;;;;;;10.18;2.58;;;;;;;4.81;84.82;96525.25;4914566;29;20035;-81
2023/12/22 02:32:22;;;;;;;12.88;3.15;;;;;;;4.79;84.97;96552.88;4918875;29;20024;-81
2023/12/22 02:34:50;;;;;;;11.10;3.33;;;;;;;4.82;85.50;96555.25;4918584;29;20076;-81
2023/12/22 02:37:18;;;;;;;10.52;3.53;;;;;;;4.96;85.61;96578.25;4919188;29;20032;-81
2023/12/22 02:39:43;;;;;;;9.48;3.53;;;;;;;4.81;85.43;96567.31;4918865;29;20087;-81
2023/12/22 02:42:09;;;;;;;13.65;3.63;;;;;;;4.89;85.78;96603.69;4919031;29;20028;-81
2023/12/22 02:44:35;;;;;;;17.88;4.03;;;;;;;4.74;85.84;96584.16;4918974;29;20035;-81
2023/12/22 02:47:00;;;;;;;9.55;2.67;;;;;;;4.65;85.37;96571.94;4918627;29;20024;-81
2023/12/22 02:49:25;;;;;;;11.88;3.00;;;;;;;4.74;85.62;96599.63;4918663;29;20031;-81
2023/12/22 02:51:51;;;;;;;8.43;2.33;;;;;;;4.67;85.73;96604.38;4918622;29;20032;-81
2023/12/22 02:54:16;;;;;;;8.45;2.28;;;;;;;4.75;85.82;96619.31;4918786;29;20029;-81
2023/12/22 02:56:42;;;;;;;4.15;2.05;;;;;;;4.56;85.73;96591.47;4918414;29;20059;-81
2023/12/22 02:59:09;;;;;;;9.07;2.20;;;;;;;4.23;85.01;96561.16;4918431;29;20525;-81
2023/12/22 03:01:34;;;;;;;10.45;2.17;;;;;;;4.28;85.28;96587.41;4918496;29;20419;-81
2023/12/22 03:04:00;;;;;;;6.05;1.77;;;;;;;4.37;84.93;96640.88;4918578;29;20068;-81
2023/12/22 03:06:25;;;;;;;8.90;2.10;;;;;;;4.27;85.11;96621.03;4918580;29;20474;-81
2023/12/22 03:08:50;;;;;;;11.23;3.15;;;;;;;4.08;84.73;96582.84;4918635;29;20541;-81
2023/12/22 03:11:16;;;;;;;11.48;2.70;;;;;;;4.14;84.74;96603.84;4918236;29;20052;-81
2023/12/22 03:13:41;;;;;;;7.20;2.90;;;;;;;4.28;84.36;96641.53;4918563;29;20031;-81
2023/12/22 03:16:09;;;;;;;11.57;2.60;;;;;;;4.20;84.02;96636.91;4918462;29;20111;-81
2023/12/22 03:18:34;;;;;;;9.95;2.53;;;;;;;4.21;84.18;96636.00;4918380;29;20035;-80
2023/12/22 03:21:00;;;;;;;7.82;2.17;;;;;;;4.02;84.05;96596.97;4918132;29;20024;-81
2023/12/22 03:23:25;;;;;;;10.75;3.47;;;;;;;4.23;83.91;96615.25;4918369;29;20068;-81
2023/12/22 03:25:51;;;;;;;10.20;2.70;;;;;;;4.03;83.51;96603.75;4916621;29;20059;-81
2023/12/22 03:28:16;;;;;;;9.38;3.28;;;;;;;4.15;83.47;96633.00;4917900;29;20174;-81
2023/12/22 03:30:42;;;;;;;9.57;3.17;;;;;;;4.20;83.67;96644.63;4918182;29;20024;-81
2023/12/22 03:33:07;;;;;;;9.02;2.45;;;;;;;4.07;83.93;96617.25;4917976;29;20120;-81
2023/12/22 03:35:32;;;;;;;7.60;2.67;;;;;;;4.09;83.81;96633.41;4917747;29;20509;-81
2023/12/22 03:37:58;;;;;;;9.90;3.00;;;;;;;4.25;84.16;96655.44;4917864;29;20032;-80
2023/12/22 03:40:23;;;;;;;9.90;2.60;;;;;;;4.25;84.21;96649.47;4918084;29;20028;-80
2023/12/22 03:42:48;;;;;;;10.48;2.90;;;;;;;4.14;84.51;96642.47;4917186;29;20078;-81
2023/12/22 03:45:14;;;;;;;17.77;7.45;;;;;;;4.03;85.09;96636.41;4917943;29;20040;-81
2023/12/22 03:47:39;;;;;;;7.05;2.47;;;;;;;4.02;85.51;96642.50;4917586;29;20405;-81
2023/12/22 03:50:05;;;;;;;15.00;3.50;;;;;;;3.81;85.43;96606.97;4917419;29;20401;-81
2023/12/22 03:52:30;;;;;;;14.02;3.60;;;;;;;4.22;86.04;96660.81;4917788;29;20028;-81
2023/12/22 03:54:55;;;;;;;14.00;4.25;;;;;;;4.15;85.83;96659.56;4917806;29;20032;-81
2023/12/22 03:57:21;;;;;;;10.57;3.38;;;;;;;3.92;86.03;96616.56;4917688;29;20103;-81
2023/12/22 03:59:46;;;;;;;9.75;3.28;;;;;;;4.16;86.04;96666.38;4916400;29;20429;-81
2023/12/22 04:02:11;;;;;;;11.07;3.35;;;;;;;4.08;86.37;96645.47;4917714;29;20024;-81
2023/12/22 04:04:40;;;;;;;8.82;2.95;;;;;;;4.18;86.54;96663.72;4917569;29;20028;-81
2023/12/22 04:07:05;;;;;;;12.70;3.47;;;;;;;3.83;86.82;96627.47;4917286;29;20024;-81
2023/12/22 04:09:30;;;;;;;6.55;2.33;;;;;;;3.92;87.37;96643.13;4917803;29;20039;-81
2023/12/22 04:11:56;;;;;;;11.98;1.90;;;;;;;4.01;88.07;96644.25;4917685;29;20028;-81
2023/12/22 04:14:21;;;;;;;9.38;2.90;;;;;;;3.96;88.64;96643.72;4917811;29;20036;-81
2023/12/22 04:16:46;;;;;;;11.82;2.60;;;;;;;4.13;89.46;96674.31;4917727;29;20374;-81
2023/12/22 04:19:12;;;;;;;7.35;2.80;;;;;;;4.04;89.63;96674.94;4917191;29;20068;-81
2023/12/22 04:21:37;;;;;;;16.52;4.35;;;;;;;3.80;90.44;96643.97;4917555;29;20031;-81
2023/12/22 04:24:03;;;;;;;13.32;3.75;;;;;;;3.95;91.11;96681.53;4917383;29;20517;-80
2023/12/22 04:26:28;;;;;;;34.42;14.43;;;;;;;3.75;91.60;96648.59;4917351;29;20402;-81
2023/12/22 04:28:53;;;;;;;18.60;6.05;;;;;;;3.78;92.04;96653.53;4917188;29;20024;-80
2023/12/22 04:31:19;;;;;;;14.50;4.35;;;;;;;3.89;92.01;96663.09;4917448;29;20024;-81
2023/12/22 04:33:45;;;;;;;22.90;9.45;;;;;;;3.72;91.81;96631.59;4917461;29;20047;-81
2023/12/22 04:36:10;;;;;;;23.40;8.38;;;;;;;3.85;91.97;96667.63;4917270;29;20044;-81
2023/12/22 04:38:35;;;;;;;12.90;5.10;;;;;;;3.64;91.53;96635.63;4917097;29;20020;-80
2023/12/22 04:41:01;;;;;;;9.93;4.13;;;;;;;3.77;90.87;96676.81;4917021;29;20024;-81
2023/12/22 04:43:26;;;;;;;8.13;2.85;;;;;;;3.68;90.23;96662.78;4916844;29;20024;-81
2023/12/22 04:45:51;;;;;;;16.27;4.20;;;;;;;3.76;89.93;96668.25;4916311;29;20032;-80
2023/12/22 04:48:17;;;;;;;18.38;4.65;;;;;;;3.63;89.54;96642.50;4916766;29;20036;-81
2023/12/22 04:50:42;;;;;;;9.10;3.70;;;;;;;3.59;88.59;96630.78;4916750;29;20024;-81
2023/12/22 04:53:07;;;;;;;6.50;2.03;;;;;;;3.58;88.57;96612.84;4916598;29;20036;-80
2023/12/22 04:55:32;;;;;;;15.02;4.00;;;;;;;3.57;88.53;96621.50;4916434;29;20032;-80
2023/12/22 04:57:58;;;;;;;17.77;6.90;;;;;;;3.92;88.07;96673.22;4916255;29;20039;-81
2023/12/22 05:00:24;;;;;;;15.70;4.03;;;;;;;3.69;88.06;96634.38;4916574;29;20035;-81
2023/12/22 05:02:49;;;;;;;15.52;5.05;;;;;;;3.88;87.76;96675.16;4915323;29;20481;-81
2023/12/22 05:05:14;;;;;;;9.88;3.47;;;;;;;3.51;87.47;96589.28;4916248;29;20039;-81
2023/12/22 05:07:40;;;;;;;18.02;5.00;;;;;;;3.71;87.14;96658.28;4916370;29;20463;-81
2023/12/22 05:10:06;;;;;;;17.90;4.80;;;;;;;3.63;87.14;96654.56;4916530;29;20095;-81
2023/12/22 05:12:31;;;;;;;17.73;4.65;;;;;;;3.55;86.81;96613.91;4916459;29;20035;-81
2023/12/22 05:14:57;;;;;;;17.70;8.85;;;;;;;3.83;86.83;96694.41;4916159;29;20032;-81
2023/12/22 05:17:22;;;;;;;11.18;4.82;;;;;;;3.84;86.95;96690.91;4916388;29;20055;-80
2023/12/22 05:19:47;;;;;;;10.65;2.80;;;;;;;3.80;86.81;96680.00;4916378;29;20039;-80
2023/12/22 05:22:13;;;;;;;15.35;5.88;;;;;;;3.85;87.08;96683.09;4916111;29;20032;-81
2023/12/22 05:24:38;;;;;;;11.43;6.28;;;;;;;3.87;86.48;96681.22;4916599;29;20107;-81
2023/12/22 05:27:04;;;;;;;12.85;4.88;;;;;;;3.87;86.52;96695.84;4915966;29;20024;-80
2023/12/22 05:29:29;;;;;;;17.02;5.80;;;;;;;3.90;86.51;96699.03;4916340;29;20553;-81
2023/12/22 05:31:55;;;;;;;12.55;5.35;;;;;;;3.77;86.69;96656.22;4916333;29;20039;-81
2023/12/22 05:34:20;;;;;;;13.63;3.30;;;;;;;3.63;86.60;96649.41;4914637;29;20079;-81
2023/12/22 05:36:45;;;;;;;22.33;7.18;;;;;;;3.68;86.83;96668.75;4915486;29;20028;-81
2023/12/22 05:39:11;;;;;;;15.23;5.75;;;;;;;3.83;87.04;96700.38;4915247;29;20036;-81
2023/12/22 05:41:37;;;;;;;17.98;7.28;;;;;;;3.80;86.94;96677.44;4915627;29;20398;-80
2023/12/22 05:44:04;;;;;;;15.18;3.95;;;;;;;3.57;86.85;96647.22;4915190;29;20028;-80
2023/12/22 05:46:30;;;;;;;12.15;5.40;;;;;;;3.58;87.37;96661.75;4915294;29;20032;-80
2023/12/22 05:48:59;;;;;;;13.35;4.05;;;;;;;3.72;87.58;96680.50;4914843;29;20381;-80
2023/12/22 05:51:24;;;;;;;7.30;2.95;;;;;;;3.64;87.41;96669.88;4915250;29;20031;-80
2023/12/22 05:53:50;;;;;;;13.90;5.43;;;;;;;3.69;87.53;96678.13;4915256;29;20067;-80
2023/12/22 05:56:22;;;;;;;11.70;5.28;;;;;;;3.45;87.50;96646.28;4914976;29;20032;-80
2023/12/22 05:58:50;;;;;;;14.18;3.20;;;;;;;3.60;87.81;96673.59;4914831;29;20044;-80
2023/12/22 06:01:18;;;;;;;8.77;2.85;;;;;;;3.74;87.27;96703.56;4914900;29;20056;-81
2023/12/22 06:03:43;;;;;;;12.85;4.80;;;;;;;3.70;86.97;96694.38;4915157;29;20086;-81
2023/12/22 06:06:09;;;;;;;9.30;3.42;;;;;;;3.51;87.43;96666.47;4916352;29;20052;-81
2023/12/22 06:08:34;;;;;;;15.18;5.60;;;;;;;3.66;87.90;96692.94;4918450;29;20040;-81
2023/12/22 06:10:59;;;;;;;10.43;2.97;;;;;;;3.77;88.01;96707.69;4918415;29;20024;-81
2023/12/22 06:13:24;;;;;;;11.48;3.30;;;;;;;3.68;87.99;96693.69;4918378;29;20028;-81
2023/12/22 06:15:50;;;;;;;14.32;5.00;;;;;;;3.52;88.17;96683.56;4918416;29;20445;-81
2023/12/22 06:18:15;;;;;;;7.20;3.45;;;;;;;3.48;88.57;96669.25;4918109;29;20212;-81
2023/12/22 06:20:40;;;;;;;13.75;3.53;;;;;;;3.48;89.19;96677.78;4918276;29;20052;-81
2023/12/22 06:23:06;;;;;;;6.70;3.45;;;;;;;3.78;89.52;96706.75;4917963;29;20123;-81
2023/12/22 06:25:31;;;;;;;11.60;3.15;;;;;;;3.53;89.64;96669.75;4918233;29;20031;-81
2023/12/22 06:27:56;;;;;;;11.65;3.50;;;;;;;3.81;89.62;96709.13;4917933;29;20040;-81
2023/12/22 06:30:22;;;;;;;8.35;2.92;;;;;;;3.73;90.23;96694.19;4918041;29;20111;-81
2023/12/22 06:32:47;;;;;;;14.52;5.28;;;;;;;3.64;90.18;96684.50;4918075;29;20020;-81
2023/12/22 06:35:13;;;;;;;13.45;3.92;;;;;;;3.82;90.12;96706.44;4880811;29;1100906;-81
2023/12/22 06:37:38;;;;;;;11.77;3.53;;;;;;;3.65;90.89;96694.69;4919153;29;20052;-81
2023/12/22 06:40:04;;;;;;;14.40;6.80;;;;;;;3.66;90.99;96696.34;4919255;29;20068;-82
2023/12/22 06:42:30;;;;;;;16.83;6.63;;;;;;;3.82;91.21;96711.59;4919977;29;20035;-82
2023/12/22 06:44:55;;;;;;;20.65;8.32;;;;;;;3.83;91.06;96713.25;4919077;29;20072;-81
2023/12/22 06:47:20;;;;;;;13.02;4.53;;;;;;;3.72;91.34;96689.97;4918838;29;20028;-82
2023/12/22 06:49:46;;;;;;;16.33;5.05;;;;;;;3.73;91.89;96686.47;4918695;29;20027;-82
2023/12/22 06:52:11;;;;;;;14.68;3.17;;;;;;;3.53;91.53;96663.81;4918432;29;20028;-82
2023/12/22 06:54:36;;;;;;;15.15;7.00;;;;;;;3.52;91.86;96691.28;4918900;29;20040;-83
2023/12/22 06:57:02;;;;;;;11.63;3.60;;;;;;;3.43;93.13;96704.75;4917240;29;20031;-83
2023/12/22 06:59:27;;;;;;;11.23;6.95;;;;;;;3.25;94.34;96673.34;4918830;29;20024;-82
2023/12/22 07:01:52;;;;;;;14.90;5.13;;;;;;;3.17;94.57;96662.72;4918441;29;20470;-81
2023/12/22 07:04:18;;;;;;;16.55;3.90;;;;;;;3.27;95.34;96686.91;4918378;29;20400;-83
2023/12/22 07:06:44;;;;;;;10.05;4.00;;;;;;;3.41;95.35;96717.72;4918431;29;20609;-82
2023/12/22 07:09:12;;;;;;;13.20;4.35;;;;;;;3.41;95.60;96717.72;4918634;29;20036;-82
2023/12/22 07:11:44;;;;;;;7.75;3.45;;;;;;;3.34;95.86;96724.19;4918798;29;20482;-83
2023/12/22 07:14:10;;;;;;;12.05;3.50;;;;;;;3.29;95.98;96720.22;4917990;29;20493;-83
2023/12/22 07:16:36;;;;;;;12.57;4.43;;;;;;;2.98;96.54;96683.63;4917778;29;20036;-82
2023/12/22 07:19:02;;;;;;;9.73;3.55;;;;;;;3.24;96.73;96712.81;4917628;29;20035;-83
2023/12/22 07:21:27;;;;;;;11.57;3.10;;;;;;;3.28;97.08;96727.13;4918061;29;20545;-81
2023/12/22 07:23:53;;;;;;;11.48;2.85;;;;;;;3.19;97.14;96720.81;4918080;29;20062;-82
2023/12/22 07:26:18;;;;;;;11.00;2.80;;;;;;;3.14;97.99;96711.75;4917905;29;20467;-83
2023/12/22 07:28:43;;;;;;;7.63;2.78;;;;;;;3.31;99.59;96739.81;4918008;29;20036;-83
2023/12/22 07:31:09;;;;;;;7.78;2.92;;;;;;;3.12;100.00;96731.59;4917901;29;20036;-83
2023/12/22 07:33:34;;;;;;;9.05;2.75;;;;;;;3.06;100.00;96717.38;4917935;29;20050;-82
2023/12/22 07:36:00;;;;;;;10.23;2.85;;;;;;;3.12;100.00;96731.59;4918282;29;20044;-82
2023/12/22 07:38:25;;;;;;;11.18;3.33;;;;;;;2.88;100.00;96698.81;4917619;29;20083;-82
2023/12/22 07:40:50;;;;;;;8.50;2.45;;;;;;;2.97;100.00;96715.41;4918125;29;20429;-82
2023/12/22 07:43:16;;;;;;;9.40;2.80;;;;;;;2.90;100.00;96714.94;4917781;29;20507;-83
2023/12/22 07:45:41;;;;;;;7.55;2.67;;;;;;;3.05;100.00;96735.50;4918015;29;20565;-82
2023/12/22 07:48:07;;;;;;;12.52;4.60;;;;;;;3.08;100.00;96750.75;4917716;29;20028;-82
2023/12/22 07:50:33;;;;;;;18.02;5.35;;;;;;;2.85;100.00;96714.41;4917967;29;20036;-82
2023/12/22 07:52:58;;;;;;;9.02;5.07;;;;;;;3.10;100.00;96759.16;4917944;29;20079;-82
2023/12/22 07:55:23;;;;;;;12.65;5.35;;;;;;;2.91;100.00;96719.19;4917741;29;20028;-81
2023/12/22 07:57:50;;;;;;;15.32;5.10;;;;;;;2.94;100.00;96728.44;4917574;29;20024;-82
2023/12/22 08:00:16;;;;;;;19.05;5.45;;;;;;;2.87;100.00;96737.47;4917621;29;20039;-82
2023/12/22 08:02:41;;;;;;;18.05;5.68;;;;;;;2.82;100.00;96750.59;4917761;29;20083;-82
2023/12/22 08:05:07;;;;;;;11.07;6.28;;;;;;;2.71;100.00;96735.03;4917414;29;20046;-82
2023/12/22 08:07:32;;;;;;;14.18;5.75;;;;;;;3.04;100.00;96775.00;4917487;29;20024;-81
2023/12/22 08:09:57;;;;;;;11.98;4.93;;;;;;;3.05;100.00;96771.50;4917508;29;20036;-83
2023/12/22 08:12:23;;;;;;;13.65;6.18;;;;;;;3.07;100.00;96767.88;4917181;29;20032;-83
2023/12/22 08:14:48;;;;;;;10.43;4.57;;;;;;;3.08;100.00;96782.41;4917447;29;20032;-81
2023/12/22 08:17:13;;;;;;;14.63;5.70;;;;;;;2.93;100.00;96757.66;4917411;29;20032;-80
2023/12/22 08:19:42;;;;;;;13.48;6.07;;;;;;;2.88;100.00;96746.84;4917336;29;20525;-82
2023/12/22 08:22:09;;;;;;;14.00;5.45;;;;;;;3.03;100.00;96757.88;4917142;29;20091;-82
2023/12/22 08:24:34;;;;;;;15.27;6.00;;;;;;;3.14;100.00;96764.03;4917326;29;20035;-82
2023/12/22 08:27:00;;;;;;;11.55;4.57;;;;;;;2.89;100.00;96725.34;4917372;29;20028;-83
2023/12/22 08:29:25;;;;;;;20.02;7.13;;;;;;;2.90;100.00;96729.56;4916679;29;20028;-85
2023/12/22 08:31:51;;;;;;;18.00;6.88;;;;;;;2.92;100.00;96728.56;4917171;29;20028;-83
2023/12/22 08:34:16;;;;;;;19.30;6.07;;;;;;;3.13;100.00;96764.94;4916653;29;20085;-82
2023/12/22 08:36:41;;;;;;;19.65;7.13;;;;;;;2.92;100.00;96718.25;4915401;29;20035;-82
2023/12/22 08:39:07;;;;;;;11.73;4.70;;;;;;;3.13;100.00;96744.38;4916479;29;20040;-82
2023/12/22 08:41:36;;;;;;;20.13;4.78;;;;;;;3.12;100.00;96750.44;4916943;29;20107;-84
2023/12/22 08:44:02;;;;;;;16.15;6.25;;;;;;;3.20;100.00;96755.09;4915353;29;20035;-82
2023/12/22 08:46:27;;;;;;;14.43;4.80;;;;;;;3.25;100.00;96760.78;4916365;29;20043;-82
2023/12/22 08:48:53;;;;;;;14.02;7.50;;;;;;;3.16;100.00;96725.34;4916489;29;20027;-82
2023/12/22 08:51:18;;;;;;;9.85;5.25;;;;;;;2.94;100.00;96707.88;4915223;29;20123;-82
2023/12/22 08:53:43;;;;;;;19.85;9.65;;;;;;;3.01;100.00;96732.28;4916799;29;20039;-82
2023/12/22 08:56:09;;;;;;;14.25;5.82;;;;;;;3.02;100.00;96753.69;4916525;29;20088;-82
2023/12/22 08:58:38;;;;;;;17.42;7.18;;;;;;;3.06;100.00;96773.13;4916907;29;20039;-82
2023/12/22 09:01:03;;;;;;;18.23;9.98;;;;;;;2.77;100.00;96719.22;4916675;29;20028;-82
2023/12/22 09:03:33;;;;;;;9.95;4.28;;;;;;;2.73;100.00;96720.31;4916473;29;20105;-82
2023/12/22 09:05:59;;;;;;;9.70;4.03;;;;;;;3.00;100.00;96746.06;4916804;29;20410;-82
2023/12/22 09:08:24;;;;;;;10.90;4.70;;;;;;;3.11;100.00;96760.81;4915051;29;20095;-81
2023/12/22 09:10:49;;;;;;;7.15;3.40;;;;;;;2.85;100.00;96705.88;4916662;29;20379;-81
2023/12/22 09:13:15;;;;;;;8.43;2.75;;;;;;;3.10;100.00;96743.75;4916379;29;20036;-82
2023/12/22 09:15:41;;;;;;;7.35;3.88;;;;;;;3.22;100.00;96745.53;4915283;29;20028;-82
2023/12/22 09:18:07;;;;;;;11.93;3.97;;;;;;;3.39;100.00;96745.28;4916650;29;20032;-82
2023/12/22 09:20:33;;;;;;;11.85;3.90;;;;;;;3.55;100.00;96745.13;4915952;29;20111;-81
2023/12/22 09:22:58;;;;;;;12.20;5.90;;;;;;;3.35;100.00;96686.41;4916396;29;20059;-82
2023/12/22 09:25:24;;;;;;;8.77;4.60;;;;;;;3.53;100.00;96725.56;4916240;29;20466;-82
2023/12/22 09:27:49;;;;;;;15.45;7.35;;;;;;;3.64;99.71;96759.16;4916015;29;20438;-82
2023/12/22 09:30:15;;;;;;;12.80;5.60;;;;;;;3.41;98.44;96722.03;4915870;29;20031;-82
2023/12/22 09:32:40;;;;;;;16.92;9.52;;;;;;;3.15;98.18;96662.78;4916281;29;20028;-82
2023/12/22 09:35:06;;;;;;;11.35;4.35;;;;;;;3.58;98.31;96750.09;4914768;29;20048;-80
2023/12/22 09:37:31;;;;;;;20.38;9.80;;;;;;;3.50;98.50;96730.00;4916147;29;20447;-81
2023/12/22 09:39:56;;;;;;;16.38;7.65;;;;;;;3.45;98.01;96708.03;4916045;29;20032;-81
2023/12/22 09:42:25;;;;;;;13.10;7.18;;;;;;;3.37;98.33;96707.72;4918506;29;20032;-82
2023/12/22 09:44:54;;;;;;;12.95;5.22;;;;;;;3.54;97.75;96753.78;4920117;29;20044;-82
2023/12/22 09:47:20;;;;;;;10.50;5.07;;;;;;;3.41;98.58;96717.72;4919813;29;20031;-82
2023/12/22 09:49:46;;;;;;;39.85;16.52;;;;;;;3.68;98.72;96747.72;4918431;29;20036;-82
2023/12/22 09:52:13;;;;;;;13.75;6.22;;;;;;;3.62;98.03;96730.09;4918533;29;20155;-82
2023/12/22 09:54:40;;;;;;;23.05;10.30;;;;;;;3.61;98.21;96738.75;4918235;29;20426;-82
2023/12/22 09:57:06;;;;;;;18.50;8.70;;;;;;;3.53;98.02;96713.50;4918481;29;20035;-82
2023/12/22 09:59:33;;;;;;;28.35;15.85;;;;;;;3.70;97.71;96731.25;4918538;29;20047;-82
2023/12/22 10:02:02;;;;;;;23.90;12.70;;;;;;;3.59;97.56;96702.00;4919852;29;20103;-82
2023/12/22 10:04:27;;;;;;;16.60;8.27;;;;;;;3.46;97.01;96705.38;4919573;29;20128;-82
2023/12/22 10:06:56;;;;;;;20.65;10.50;;;;;;;3.39;97.18;96698.97;4919744;29;20037;-82
2023/12/22 10:09:21;;;;;;;13.43;6.22;;;;;;;3.57;97.24;96716.72;4918209;29;20024;-82
2023/12/22 10:11:49;;;;;;;11.00;4.90;;;;;;;3.68;96.45;96743.41;4919160;29;20509;-82
2023/12/22 10:14:21;;;;;;;9.45;4.18;;;;;;;3.74;96.57;96775.63;4914296;29;20024;-82
2023/12/22 10:16:48;;;;;;;11.30;4.03;;;;;;;3.53;95.96;96713.50;4917120;29;20060;-82
2023/12/22 10:19:14;;;;;;;10.25;4.25;;;;;;;3.43;95.10;96726.16;4917680;29;20036;-82
2023/12/22 10:21:40;;;;;;;12.32;4.85;;;;;;;3.72;94.94;96738.88;4918245;29;20123;-82
2023/12/22 10:24:05;;;;;;;10.70;4.53;;;;;;;3.51;94.49;96710.22;4919781;29;20043;-81
2023/12/22 10:26:30;;;;;;;12.05;4.68;;;;;;;3.76;94.23;96760.94;4919382;29;20075;-82
2023/12/22 10:28:55;;;;;;;10.05;3.70;;;;;;;3.77;94.14;96752.28;4919857;29;20028;-82
2023/12/22 10:31:21;;;;;;;16.48;7.32;;;;;;;3.70;93.27;96745.88;4920512;29;20025;-82
2023/12/22 10:33:46;;;;;;;11.35;4.90;;;;;;;3.88;93.10;96760.13;4920714;29;20024;-81
2023/12/22 10:36:14;;;;;;;13.25;6.60;;;;;;;3.89;92.69;96768.66;4921604;29;20379;-81
2023/12/22 10:38:40;;;;;;;9.43;5.18;;;;;;;3.92;91.34;96768.47;4919290;29;20587;-80
2023/12/22 10:41:07;;;;;;;22.92;8.27;;;;;;;3.91;91.44;96770.19;4917154;29;20031;-81
2023/12/22 10:43:40;;;;;;;14.20;5.93;;;;;;;3.90;90.88;96768.56;4915576;29;20036;-81
2023/12/22 10:46:07;;;;;;;18.60;7.63;;;;;;;3.86;90.66;96753.41;4916137;29;20527;-82
2023/12/22 10:48:33;;;;;;;21.73;8.50;;;;;;;3.95;89.78;96761.34;4917284;29;20032;-82
2023/12/22 10:50:58;;;;;;;7.05;3.13;;;;;;;3.98;89.72;96783.50;4917437;29;20481;-82
2023/12/22 10:53:24;;;;;;;14.25;5.30;;;;;;;4.00;89.30;96759.31;4917317;29;20561;-82
2023/12/22 10:55:50;;;;;;;26.60;12.38;;;;;;;4.08;89.11;96770.84;4917572;29;20055;-82
2023/12/22 10:58:16;;;;;;;12.20;5.53;;;;;;;4.14;88.69;96784.16;4918509;29;20043;-82
2023/12/22 11:00:46;;;;;;;9.05;4.68;;;;;;;3.98;88.46;96748.28;4918495;29;20028;-81
2023/12/22 11:03:17;;;;;;;12.82;6.85;;;;;;;4.17;87.67;96788.25;4918736;29;20411;-82
2023/12/22 11:05:45;;;;;;;8.40;4.57;;;;;;;4.06;87.50;96777.84;4916922;29;20442;-82
2023/12/22 11:08:11;;;;;;;10.35;4.88;;;;;;;4.02;86.52;96768.69;4918473;29;20414;-82
2023/12/22 11:10:41;;;;;;;11.55;5.57;;;;;;;3.97;86.97;96745.81;4917239;29;20039;-81
2023/12/22 11:13:12;;;;;;;14.15;6.38;;;;;;;4.08;86.34;96781.16;4918265;29;20034;-83
2023/12/22 11:15:39;;;;;;;9.53;3.67;;;;;;;3.96;85.78;96762.16;4918112;29;20025;-83
2023/12/22 11:18:05;;;;;;;7.07;4.38;;;;;;;4.03;85.35;96755.69;4917146;29;20288;-83
2023/12/22 11:20:32;;;;;;;10.10;4.50;;;;;;;4.16;84.36;96810.63;4916974;29;20020;-81
2023/12/22 11:23:00;;;;;;;16.85;7.05;;;;;;;4.25;84.55;96791.97;4918440;29;20043;-81
2023/12/22 11:25:26;;;;;;;14.70;4.82;;;;;;;4.28;83.52;96788.38;4918139;29;20028;-80
2023/12/22 11:27:53;;;;;;;10.75;4.35;;;;;;;4.25;83.06;96793.72;4916991;29;20061;-81